Odenville, Alabama
Current Conditions -  °F | °C
As of 2:53 PM on Sunday 21 Dec 2014 (Local Time) from KBHM Reporting Station
Overcast Overcast  
Wind Chill: 56°   Ceiling: 2400
Heat Index: 56°   Visibility: 10mi
Dew Point: 45°   Wind: 3mph
Humidity: 67%   Direction: 140°SE
Pressure: 30.08"   Gusts: NA
Location:  33.68°N, 86.4°W
Report Text: KBHM 212053Z 14003KT 10SM BKN024 OVC065 13/07 A3008 RMK AO2 SLP185 T01330072 56018
Loading
Personal Weather Stations






























Interactive Weather Map New forecast layout! Learn more

10-Day Weather Forecast

Advertisements
Track Severe Weather on mobile